CheckWX is a tool to help pilots better visualize weather data.  It is not intended as a substitute for an official pre-flight weather briefing.

13:17:49 UTC

N38 METAR
Wellsboro Johnston Airport
Wellsboro, Pennsylvania, USA
Current

43 mins ago

KN38 161235Z AUTO 18008KT 1 1/2SM BR BKN006 BKN013 OVC022 16/16 A2985 RMK AO2
Observed
Jun-16 @ 12:35 UTC
Wind
  • 180° at 8 KTS
Visibility
1 1/2 SM
Flight Rules
IFR
Conditions
Mist
Cloud Levels
  • Broken at 600' AGL
  • Broken at 1,300' AGL
  • Overcast at 2,200' AGL
Temperature
16°C / 61°F
Dewpoint
16°C / 61°F
Humidity
100%
Altimeter
29.85" Hg
Pressure
1010.82 hPa
Previous

1 hour ago

KN38 161215Z AUTO 19008KT 2SM -RA SCT005 BKN009 OVC030 16/16 A2985 RMK AO2 VIS 1V5
Observed
Jun-16 @ 12:15 UTC
Wind
  • 190° at 8 KTS
Visibility
2 SM
Flight Rules
IFR
Conditions
Light Rain
Cloud Levels
  • Scattered at 500' AGL
  • Broken at 900' AGL
  • Overcast at 3,000' AGL
Temperature
16°C / 61°F
Dewpoint
16°C / 61°F
Humidity
100%
Altimeter
29.85" Hg
Pressure
1010.82 hPa
Previous

1 hour ago

KN38 161155Z AUTO 18009KT 3SM BR SCT005 BKN010 BKN024 16/16 A2985 RMK AO2
Observed
Jun-16 @ 11:55 UTC
Wind
  • 180° at 9 KTS
Visibility
3 SM
Flight Rules
MVFR
Conditions
Mist
Cloud Levels
  • Scattered at 500' AGL
  • Broken at 1,000' AGL
  • Broken at 2,400' AGL
Temperature
16°C / 61°F
Dewpoint
16°C / 61°F
Humidity
100%
Altimeter
29.85" Hg
Pressure
1010.82 hPa